sensor_id;sensor_type;location;lat;lon;timestamp;P1;durP1;ratioP1;P2;durP2;ratioP2
6121;SDS011;3091;51.506;7.672;2024-02-23T00:00:16;15.50;;;14.90;;
6121;SDS011;3091;51.506;7.672;2024-02-23T00:02:43;16.10;;;15.33;;
6121;SDS011;3091;51.506;7.672;2024-02-23T00:05:09;15.40;;;14.70;;
6121;SDS011;3091;51.506;7.672;2024-02-23T00:07:35;15.00;;;14.40;;
6121;SDS011;3091;51.506;7.672;2024-02-23T00:10:01;14.80;;;14.30;;
6121;SDS011;3091;51.506;7.672;2024-02-23T00:12:27;14.90;;;14.40;;
6121;SDS011;3091;51.506;7.672;2024-02-23T00:14:53;14.90;;;14.40;;
6121;SDS011;3091;51.506;7.672;2024-02-23T00:17:20;15.20;;;14.70;;
6121;SDS011;3091;51.506;7.672;2024-02-23T00:19:47;15.70;;;15.10;;
6121;SDS011;3091;51.506;7.672;2024-02-23T00:22:14;16.40;;;15.80;;
6121;SDS011;3091;51.506;7.672;2024-02-23T00:24:40;16.27;;;15.67;;
6121;SDS011;3091;51.506;7.672;2024-02-23T00:27:06;16.10;;;15.50;;
6121;SDS011;3091;51.506;7.672;2024-02-23T00:29:32;16.60;;;16.00;;
6121;SDS011;3091;51.506;7.672;2024-02-23T00:31:58;16.70;;;16.10;;
6121;SDS011;3091;51.506;7.672;2024-02-23T00:34:24;17.53;;;16.20;;
6121;SDS011;3091;51.506;7.672;2024-02-23T00:36:50;16.40;;;15.80;;
6121;SDS011;3091;51.506;7.672;2024-02-23T00:39:16;16.70;;;16.00;;
6121;SDS011;3091;51.506;7.672;2024-02-23T00:41:42;16.20;;;15.60;;
6121;SDS011;3091;51.506;7.672;2024-02-23T00:44:09;16.07;;;15.47;;
6121;SDS011;3091;51.506;7.672;2024-02-23T00:46:35;16.80;;;16.10;;
6121;SDS011;3091;51.506;7.672;2024-02-23T00:49:01;16.43;;;15.80;;
6121;SDS011;3091;51.506;7.672;2024-02-23T00:51:27;17.03;;;16.33;;
6121;SDS011;3091;51.506;7.672;2024-02-23T00:53:56;16.90;;;16.20;;
6121;SDS011;3091;51.506;7.672;2024-02-23T00:56:22;16.70;;;16.10;;
6121;SDS011;3091;51.506;7.672;2024-02-23T00:58:48;16.60;;;15.97;;
6121;SDS011;3091;51.506;7.672;2024-02-23T01:01:14;17.10;;;16.40;;
6121;SDS011;3091;51.506;7.672;2024-02-23T01:03:41;16.67;;;16.03;;
6121;SDS011;3091;51.506;7.672;2024-02-23T01:06:07;16.90;;;16.20;;
6121;SDS011;3091;51.506;7.672;2024-02-23T01:08:33;16.70;;;16.10;;
6121;SDS011;3091;51.506;7.672;2024-02-23T01:11:00;15.83;;;15.23;;
6121;SDS011;3091;51.506;7.672;2024-02-23T01:13:26;16.60;;;15.90;;
6121;SDS011;3091;51.506;7.672;2024-02-23T01:15:55;16.50;;;15.90;;
6121;SDS011;3091;51.506;7.672;2024-02-23T01:18:21;16.40;;;15.80;;
6121;SDS011;3091;51.506;7.672;2024-02-23T01:20:49;16.00;;;15.40;;
6121;SDS011;3091;51.506;7.672;2024-02-23T01:23:15;16.80;;;16.10;;
6121;SDS011;3091;51.506;7.672;2024-02-23T01:25:44;15.40;;;14.80;;
6121;SDS011;3091;51.506;7.672;2024-02-23T01:28:10;15.60;;;14.90;;
6121;SDS011;3091;51.506;7.672;2024-02-23T01:30:36;16.37;;;15.67;;
6121;SDS011;3091;51.506;7.672;2024-02-23T01:33:02;15.60;;;15.00;;
6121;SDS011;3091;51.506;7.672;2024-02-23T01:35:28;15.97;;;15.37;;
6121;SDS011;3091;51.506;7.672;2024-02-23T01:37:55;16.20;;;15.60;;
6121;SDS011;3091;51.506;7.672;2024-02-23T01:40:21;15.57;;;14.97;;
6121;SDS011;3091;51.506;7.672;2024-02-23T01:42:47;15.60;;;15.00;;
6121;SDS011;3091;51.506;7.672;2024-02-23T01:45:13;15.87;;;15.13;;
6121;SDS011;3091;51.506;7.672;2024-02-23T01:47:39;15.70;;;15.10;;
6121;SDS011;3091;51.506;7.672;2024-02-23T01:50:06;16.30;;;15.70;;
6121;SDS011;3091;51.506;7.672;2024-02-23T01:52:34;15.80;;;15.20;;
6121;SDS011;3091;51.506;7.672;2024-02-23T01:55:00;16.10;;;15.50;;
6121;SDS011;3091;51.506;7.672;2024-02-23T01:57:26;16.40;;;15.80;;
6121;SDS011;3091;51.506;7.672;2024-02-23T01:59:52;16.43;;;15.83;;
6121;SDS011;3091;51.506;7.672;2024-02-23T02:02:18;16.33;;;15.73;;
6121;SDS011;3091;51.506;7.672;2024-02-23T02:04:45;16.77;;;16.13;;
6121;SDS011;3091;51.506;7.672;2024-02-23T02:07:11;17.13;;;16.43;;
6121;SDS011;3091;51.506;7.672;2024-02-23T02:09:37;17.37;;;16.67;;
6121;SDS011;3091;51.506;7.672;2024-02-23T02:12:03;17.10;;;16.40;;
6121;SDS011;3091;51.506;7.672;2024-02-23T02:14:29;16.67;;;15.97;;
6121;SDS011;3091;51.506;7.672;2024-02-23T02:16:56;16.67;;;15.97;;
6121;SDS011;3091;51.506;7.672;2024-02-23T02:19:22;17.30;;;16.60;;
6121;SDS011;3091;51.506;7.672;2024-02-23T02:21:49;17.13;;;16.33;;
6121;SDS011;3091;51.506;7.672;2024-02-23T02:24:15;15.87;;;15.27;;
6121;SDS011;3091;51.506;7.672;2024-02-23T02:26:41;16.30;;;15.60;;
6121;SDS011;3091;51.506;7.672;2024-02-23T02:29:10;16.00;;;15.40;;
6121;SDS011;3091;51.506;7.672;2024-02-23T02:31:36;15.40;;;14.80;;
6121;SDS011;3091;51.506;7.672;2024-02-23T02:34:03;16.13;;;15.53;;
6121;SDS011;3091;51.506;7.672;2024-02-23T02:36:29;16.20;;;15.50;;
6121;SDS011;3091;51.506;7.672;2024-02-23T02:38:55;15.27;;;14.67;;
6121;SDS011;3091;51.506;7.672;2024-02-23T02:41:22;15.70;;;15.10;;
6121;SDS011;3091;51.506;7.672;2024-02-23T02:43:48;16.13;;;15.40;;
6121;SDS011;3091;51.506;7.672;2024-02-23T02:46:14;16.20;;;15.60;;
6121;SDS011;3091;51.506;7.672;2024-02-23T02:48:41;15.80;;;15.20;;
6121;SDS011;3091;51.506;7.672;2024-02-23T02:51:07;16.30;;;15.70;;
6121;SDS011;3091;51.506;7.672;2024-02-23T02:53:33;16.00;;;15.30;;
6121;SDS011;3091;51.506;7.672;2024-02-23T02:55:59;15.20;;;14.60;;
6121;SDS011;3091;51.506;7.672;2024-02-23T02:58:25;15.50;;;14.90;;
6121;SDS011;3091;51.506;7.672;2024-02-23T03:00:52;15.70;;;15.10;;
6121;SDS011;3091;51.506;7.672;2024-02-23T03:03:20;14.57;;;14.07;;
6121;SDS011;3091;51.506;7.672;2024-02-23T03:05:47;15.90;;;15.30;;
6121;SDS011;3091;51.506;7.672;2024-02-23T03:08:13;14.77;;;14.17;;
6121;SDS011;3091;51.506;7.672;2024-02-23T03:10:42;22.83;;;15.77;;
6121;SDS011;3091;51.506;7.672;2024-02-23T03:13:08;15.53;;;14.93;;
6121;SDS011;3091;51.506;7.672;2024-02-23T03:15:34;16.43;;;15.57;;
6121;SDS011;3091;51.506;7.672;2024-02-23T03:18:00;15.40;;;14.80;;
6121;SDS011;3091;51.506;7.672;2024-02-23T03:20:27;15.50;;;14.90;;
6121;SDS011;3091;51.506;7.672;2024-02-23T03:22:53;15.93;;;15.33;;
6121;SDS011;3091;51.506;7.672;2024-02-23T03:25:20;16.77;;;15.70;;
6121;SDS011;3091;51.506;7.672;2024-02-23T03:27:48;16.30;;;15.70;;
6121;SDS011;3091;51.506;7.672;2024-02-23T03:30:14;17.10;;;16.20;;
6121;SDS011;3091;51.506;7.672;2024-02-23T03:32:40;16.33;;;15.63;;
6121;SDS011;3091;51.506;7.672;2024-02-23T03:35:07;15.90;;;15.30;;
6121;SDS011;3091;51.506;7.672;2024-02-23T03:37:33;16.30;;;15.70;;
6121;SDS011;3091;51.506;7.672;2024-02-23T03:39:59;15.27;;;14.67;;
6121;SDS011;3091;51.506;7.672;2024-02-23T03:42:28;15.70;;;15.10;;
6121;SDS011;3091;51.506;7.672;2024-02-23T03:44:54;16.30;;;15.70;;
6121;SDS011;3091;51.506;7.672;2024-02-23T03:47:20;16.17;;;15.57;;
6121;SDS011;3091;51.506;7.672;2024-02-23T03:49:46;17.10;;;16.40;;
6121;SDS011;3091;51.506;7.672;2024-02-23T03:52:12;17.17;;;16.40;;
6121;SDS011;3091;51.506;7.672;2024-02-23T03:54:39;16.80;;;16.10;;
6121;SDS011;3091;51.506;7.672;2024-02-23T03:57:05;16.90;;;16.10;;
6121;SDS011;3091;51.506;7.672;2024-02-23T03:59:31;17.53;;;16.43;;
6121;SDS011;3091;51.506;7.672;2024-02-23T04:01:57;16.97;;;16.27;;
6121;SDS011;3091;51.506;7.672;2024-02-23T04:04:23;17.00;;;16.30;;
6121;SDS011;3091;51.506;7.672;2024-02-23T04:06:49;17.40;;;16.60;;
6121;SDS011;3091;51.506;7.672;2024-02-23T04:09:15;16.20;;;15.60;;
6121;SDS011;3091;51.506;7.672;2024-02-23T04:11:41;16.67;;;16.07;;
6121;SDS011;3091;51.506;7.672;2024-02-23T04:14:10;17.50;;;16.80;;
6121;SDS011;3091;51.506;7.672;2024-02-23T04:16:36;16.60;;;15.90;;
6121;SDS011;3091;51.506;7.672;2024-02-23T04:19:02;16.23;;;15.63;;
6121;SDS011;3091;51.506;7.672;2024-02-23T04:21:28;15.60;;;15.00;;
6121;SDS011;3091;51.506;7.672;2024-02-23T04:23:54;15.90;;;15.30;;
6121;SDS011;3091;51.506;7.672;2024-02-23T04:26:21;16.60;;;15.80;;
6121;SDS011;3091;51.506;7.672;2024-02-23T04:28:47;16.57;;;15.93;;
6121;SDS011;3091;51.506;7.672;2024-02-23T04:31:13;16.70;;;15.90;;
6121;SDS011;3091;51.506;7.672;2024-02-23T04:33:39;16.23;;;15.63;;
6121;SDS011;3091;51.506;7.672;2024-02-23T04:36:06;15.90;;;15.30;;
6121;SDS011;3091;51.506;7.672;2024-02-23T04:38:32;15.70;;;15.10;;
6121;SDS011;3091;51.506;7.672;2024-02-23T04:41:02;15.97;;;14.93;;
6121;SDS011;3091;51.506;7.672;2024-02-23T04:43:28;16.33;;;15.70;;
6121;SDS011;3091;51.506;7.672;2024-02-23T04:45:54;16.47;;;15.87;;
6121;SDS011;3091;51.506;7.672;2024-02-23T04:48:20;16.03;;;15.13;;
6121;SDS011;3091;51.506;7.672;2024-02-23T04:50:46;15.70;;;15.10;;
6121;SDS011;3091;51.506;7.672;2024-02-23T04:53:20;15.70;;;15.00;;
6121;SDS011;3091;51.506;7.672;2024-02-23T04:55:46;15.57;;;14.97;;
6121;SDS011;3091;51.506;7.672;2024-02-23T04:58:12;15.50;;;14.70;;
6121;SDS011;3091;51.506;7.672;2024-02-23T05:00:38;16.83;;;16.13;;
6121;SDS011;3091;51.506;7.672;2024-02-23T05:03:05;16.17;;;15.47;;
6121;SDS011;3091;51.506;7.672;2024-02-23T05:05:31;15.67;;;15.07;;
6121;SDS011;3091;51.506;7.672;2024-02-23T05:07:57;15.83;;;15.23;;
6121;SDS011;3091;51.506;7.672;2024-02-23T05:10:24;16.20;;;15.60;;
6121;SDS011;3091;51.506;7.672;2024-02-23T05:12:50;15.80;;;15.20;;
6121;SDS011;3091;51.506;7.672;2024-02-23T05:15:16;15.93;;;15.33;;
6121;SDS011;3091;51.506;7.672;2024-02-23T05:17:42;16.60;;;15.80;;
6121;SDS011;3091;51.506;7.672;2024-02-23T05:20:09;16.60;;;15.90;;
6121;SDS011;3091;51.506;7.672;2024-02-23T05:22:38;16.90;;;16.20;;
6121;SDS011;3091;51.506;7.672;2024-02-23T05:25:04;17.03;;;16.30;;
6121;SDS011;3091;51.506;7.672;2024-02-23T05:27:30;16.40;;;15.80;;
6121;SDS011;3091;51.506;7.672;2024-02-23T05:29:57;16.80;;;16.20;;
6121;SDS011;3091;51.506;7.672;2024-02-23T05:32:23;16.80;;;16.10;;
6121;SDS011;3091;51.506;7.672;2024-02-23T05:34:49;17.20;;;16.40;;
6121;SDS011;3091;51.506;7.672;2024-02-23T05:37:17;16.60;;;15.90;;
6121;SDS011;3091;51.506;7.672;2024-02-23T05:39:44;16.33;;;15.73;;
6121;SDS011;3091;51.506;7.672;2024-02-23T05:42:11;16.37;;;15.67;;
6121;SDS011;3091;51.506;7.672;2024-02-23T05:44:38;15.80;;;15.20;;
6121;SDS011;3091;51.506;7.672;2024-02-23T05:47:04;16.03;;;15.43;;
6121;SDS011;3091;51.506;7.672;2024-02-23T05:49:30;15.63;;;15.03;;
6121;SDS011;3091;51.506;7.672;2024-02-23T05:51:56;15.83;;;15.23;;
6121;SDS011;3091;51.506;7.672;2024-02-23T05:54:23;15.60;;;15.00;;
6121;SDS011;3091;51.506;7.672;2024-02-23T05:56:51;15.73;;;15.13;;
6121;SDS011;3091;51.506;7.672;2024-02-23T05:59:17;15.50;;;14.90;;
6121;SDS011;3091;51.506;7.672;2024-02-23T06:01:43;17.03;;;15.70;;
6121;SDS011;3091;51.506;7.672;2024-02-23T06:04:09;16.17;;;15.57;;
6121;SDS011;3091;51.506;7.672;2024-02-23T06:06:35;16.33;;;15.67;;
6121;SDS011;3091;51.506;7.672;2024-02-23T06:09:02;17.07;;;16.37;;
6121;SDS011;3091;51.506;7.672;2024-02-23T06:11:29;17.00;;;16.30;;
6121;SDS011;3091;51.506;7.672;2024-02-23T06:13:55;16.90;;;16.20;;
6121;SDS011;3091;51.506;7.672;2024-02-23T06:16:21;17.27;;;16.57;;
6121;SDS011;3091;51.506;7.672;2024-02-23T06:18:47;17.27;;;16.57;;
6121;SDS011;3091;51.506;7.672;2024-02-23T06:21:15;17.40;;;16.70;;
6121;SDS011;3091;51.506;7.672;2024-02-23T06:23:42;17.40;;;16.70;;
6121;SDS011;3091;51.506;7.672;2024-02-23T06:26:09;17.40;;;16.70;;
6121;SDS011;3091;51.506;7.672;2024-02-23T06:28:35;17.07;;;16.37;;
6121;SDS011;3091;51.506;7.672;2024-02-23T06:31:06;17.47;;;16.77;;
6121;SDS011;3091;51.506;7.672;2024-02-23T06:33:32;17.17;;;16.47;;
6121;SDS011;3091;51.506;7.672;2024-02-23T06:35:58;17.50;;;16.80;;
6121;SDS011;3091;51.506;7.672;2024-02-23T06:38:25;17.40;;;16.70;;
6121;SDS011;3091;51.506;7.672;2024-02-23T06:40:51;19.13;;;18.33;;
6121;SDS011;3091;51.506;7.672;2024-02-23T06:43:20;18.23;;;17.53;;
6121;SDS011;3091;51.506;7.672;2024-02-23T06:45:46;18.57;;;17.87;;
6121;SDS011;3091;51.506;7.672;2024-02-23T06:48:12;19.20;;;18.40;;
6121;SDS011;3091;51.506;7.672;2024-02-23T06:50:38;17.70;;;17.00;;
6121;SDS011;3091;51.506;7.672;2024-02-23T06:53:06;17.37;;;16.67;;
6121;SDS011;3091;51.506;7.672;2024-02-23T06:55:33;16.77;;;16.10;;
6121;SDS011;3091;51.506;7.672;2024-02-23T06:58:00;16.10;;;15.50;;
6121;SDS011;3091;51.506;7.672;2024-02-23T07:00:26;16.30;;;15.23;;
6121;SDS011;3091;51.506;7.672;2024-02-23T07:02:53;15.37;;;14.77;;
6121;SDS011;3091;51.506;7.672;2024-02-23T07:05:19;15.50;;;14.90;;
6121;SDS011;3091;51.506;7.672;2024-02-23T07:07:45;15.30;;;14.70;;
6121;SDS011;3091;51.506;7.672;2024-02-23T07:10:11;16.10;;;15.50;;
6121;SDS011;3091;51.506;7.672;2024-02-23T07:12:38;15.43;;;14.83;;
6121;SDS011;3091;51.506;7.672;2024-02-23T07:15:04;16.10;;;15.50;;
6121;SDS011;3091;51.506;7.672;2024-02-23T07:17:31;16.57;;;15.97;;
6121;SDS011;3091;51.506;7.672;2024-02-23T07:19:57;18.10;;;17.40;;
6121;SDS011;3091;51.506;7.672;2024-02-23T07:22:30;17.63;;;16.87;;
6121;SDS011;3091;51.506;7.672;2024-02-23T07:24:56;16.90;;;16.30;;
6121;SDS011;3091;51.506;7.672;2024-02-23T07:27:22;16.47;;;15.87;;
6121;SDS011;3091;51.506;7.672;2024-02-23T07:29:48;15.30;;;14.80;;
6121;SDS011;3091;51.506;7.672;2024-02-23T07:32:14;16.20;;;15.60;;
6121;SDS011;3091;51.506;7.672;2024-02-23T07:34:40;16.30;;;15.70;;
6121;SDS011;3091;51.506;7.672;2024-02-23T07:37:06;16.00;;;15.40;;
6121;SDS011;3091;51.506;7.672;2024-02-23T07:39:35;15.33;;;14.83;;
6121;SDS011;3091;51.506;7.672;2024-02-23T07:42:01;15.90;;;15.30;;
6121;SDS011;3091;51.506;7.672;2024-02-23T07:44:28;16.50;;;15.90;;
6121;SDS011;3091;51.506;7.672;2024-02-23T07:46:54;16.30;;;15.70;;
6121;SDS011;3091;51.506;7.672;2024-02-23T07:49:20;15.70;;;15.10;;
6121;SDS011;3091;51.506;7.672;2024-02-23T07:51:47;17.13;;;15.60;;
6121;SDS011;3091;51.506;7.672;2024-02-23T07:54:16;16.47;;;15.87;;
6121;SDS011;3091;51.506;7.672;2024-02-23T07:56:42;16.70;;;16.10;;
6121;SDS011;3091;51.506;7.672;2024-02-23T07:59:08;15.90;;;15.33;;
6121;SDS011;3091;51.506;7.672;2024-02-23T08:01:34;17.30;;;16.67;;
6121;SDS011;3091;51.506;7.672;2024-02-23T08:04:00;17.77;;;17.07;;
6121;SDS011;3091;51.506;7.672;2024-02-23T08:06:28;17.80;;;17.10;;
6121;SDS011;3091;51.506;7.672;2024-02-23T08:08:54;17.37;;;16.67;;
6121;SDS011;3091;51.506;7.672;2024-02-23T08:11:20;18.90;;;18.10;;
6121;SDS011;3091;51.506;7.672;2024-02-23T08:13:46;18.63;;;17.93;;
6121;SDS011;3091;51.506;7.672;2024-02-23T08:16:12;18.37;;;17.67;;
6121;SDS011;3091;51.506;7.672;2024-02-23T08:18:38;18.00;;;17.30;;
6121;SDS011;3091;51.506;7.672;2024-02-23T08:21:12;18.90;;;18.17;;
6121;SDS011;3091;51.506;7.672;2024-02-23T08:23:38;18.00;;;17.30;;
6121;SDS011;3091;51.506;7.672;2024-02-23T08:26:05;17.27;;;16.67;;
6121;SDS011;3091;51.506;7.672;2024-02-23T08:28:31;17.70;;;17.00;;
6121;SDS011;3091;51.506;7.672;2024-02-23T08:30:57;17.30;;;16.40;;
6121;SDS011;3091;51.506;7.672;2024-02-23T08:33:24;16.97;;;16.37;;
6121;SDS011;3091;51.506;7.672;2024-02-23T08:35:50;17.57;;;16.97;;
6121;SDS011;3091;51.506;7.672;2024-02-23T08:38:18;16.40;;;15.80;;
6121;SDS011;3091;51.506;7.672;2024-02-23T08:40:44;16.90;;;16.30;;
6121;SDS011;3091;51.506;7.672;2024-02-23T08:43:11;17.63;;;16.63;;
6121;SDS011;3091;51.506;7.672;2024-02-23T08:45:37;17.43;;;16.83;;
6121;SDS011;3091;51.506;7.672;2024-02-23T08:48:03;17.83;;;17.23;;
6121;SDS011;3091;51.506;7.672;2024-02-23T08:50:29;17.80;;;17.00;;
6121;SDS011;3091;51.506;7.672;2024-02-23T08:52:56;19.57;;;18.77;;
6121;SDS011;3091;51.506;7.672;2024-02-23T08:55:22;20.20;;;19.40;;
6121;SDS011;3091;51.506;7.672;2024-02-23T08:57:48;17.77;;;17.17;;
6121;SDS011;3091;51.506;7.672;2024-02-23T09:00:14;18.53;;;17.73;;
6121;SDS011;3091;51.506;7.672;2024-02-23T09:02:43;18.77;;;18.07;;
6121;SDS011;3091;51.506;7.672;2024-02-23T09:05:12;17.93;;;17.17;;
6121;SDS011;3091;51.506;7.672;2024-02-23T09:07:38;16.90;;;16.30;;
6121;SDS011;3091;51.506;7.672;2024-02-23T09:10:06;16.60;;;16.00;;
6121;SDS011;3091;51.506;7.672;2024-02-23T09:12:33;16.23;;;15.63;;
6121;SDS011;3091;51.506;7.672;2024-02-23T09:14:59;19.13;;;18.43;;
6121;SDS011;3091;51.506;7.672;2024-02-23T09:17:25;19.40;;;18.70;;
6121;SDS011;3091;51.506;7.672;2024-02-23T09:19:52;18.07;;;17.40;;
6121;SDS011;3091;51.506;7.672;2024-02-23T09:22:18;17.27;;;16.57;;
6121;SDS011;3091;51.506;7.672;2024-02-23T09:24:45;16.90;;;16.30;;
6121;SDS011;3091;51.506;7.672;2024-02-23T09:27:11;18.30;;;17.60;;
6121;SDS011;3091;51.506;7.672;2024-02-23T09:29:37;17.47;;;16.87;;
6121;SDS011;3091;51.506;7.672;2024-02-23T09:32:03;18.33;;;17.63;;
6121;SDS011;3091;51.506;7.672;2024-02-23T09:34:30;18.03;;;17.33;;
6121;SDS011;3091;51.506;7.672;2024-02-23T09:36:56;17.90;;;16.93;;
6121;SDS011;3091;51.506;7.672;2024-02-23T09:39:22;18.90;;;17.73;;
6121;SDS011;3091;51.506;7.672;2024-02-23T09:41:51;17.30;;;16.60;;
6121;SDS011;3091;51.506;7.672;2024-02-23T09:44:18;16.60;;;16.00;;
6121;SDS011;3091;51.506;7.672;2024-02-23T09:46:46;18.70;;;17.83;;
6121;SDS011;3091;51.506;7.672;2024-02-23T09:49:12;17.87;;;17.07;;
6121;SDS011;3091;51.506;7.672;2024-02-23T09:51:39;19.10;;;18.30;;
6121;SDS011;3091;51.506;7.672;2024-02-23T09:54:05;17.80;;;17.00;;
6121;SDS011;3091;51.506;7.672;2024-02-23T09:56:32;16.90;;;16.30;;
6121;SDS011;3091;51.506;7.672;2024-02-23T09:59:02;17.40;;;16.70;;
6121;SDS011;3091;51.506;7.672;2024-02-23T10:01:29;16.27;;;15.67;;
6121;SDS011;3091;51.506;7.672;2024-02-23T10:03:59;16.50;;;15.90;;
6121;SDS011;3091;51.506;7.672;2024-02-23T10:06:26;16.60;;;16.00;;
6121;SDS011;3091;51.506;7.672;2024-02-23T10:08:52;16.60;;;16.00;;
6121;SDS011;3091;51.506;7.672;2024-02-23T10:11:22;16.80;;;16.20;;
6121;SDS011;3091;51.506;7.672;2024-02-23T10:13:48;17.80;;;17.00;;
6121;SDS011;3091;51.506;7.672;2024-02-23T10:16:15;18.00;;;17.30;;
6121;SDS011;3091;51.506;7.672;2024-02-23T10:18:41;17.60;;;17.00;;
6121;SDS011;3091;51.506;7.672;2024-02-23T10:21:07;17.53;;;16.63;;
6121;SDS011;3091;51.506;7.672;2024-02-23T10:23:34;17.97;;;17.27;;
6121;SDS011;3091;51.506;7.672;2024-02-23T10:26:00;21.33;;;20.53;;
6121;SDS011;3091;51.506;7.672;2024-02-23T10:28:26;17.20;;;16.60;;
6121;SDS011;3091;51.506;7.672;2024-02-23T10:30:53;18.20;;;17.30;;
6121;SDS011;3091;51.506;7.672;2024-02-23T10:33:22;17.80;;;17.13;;
6121;SDS011;3091;51.506;7.672;2024-02-23T10:35:51;18.03;;;17.37;;
6121;SDS011;3091;51.506;7.672;2024-02-23T10:38:21;18.50;;;17.80;;
6121;SDS011;3091;51.506;7.672;2024-02-23T10:40:48;18.67;;;17.97;;
6121;SDS011;3091;51.506;7.672;2024-02-23T10:43:16;18.30;;;17.70;;
6121;SDS011;3091;51.506;7.672;2024-02-23T10:45:46;21.20;;;20.50;;
6121;SDS011;3091;51.506;7.672;2024-02-23T10:48:12;19.27;;;18.47;;
6121;SDS011;3091;51.506;7.672;2024-02-23T10:50:39;18.80;;;18.10;;
6121;SDS011;3091;51.506;7.672;2024-02-23T10:53:09;19.37;;;18.63;;
6121;SDS011;3091;51.506;7.672;2024-02-23T10:55:36;18.60;;;17.60;;
6121;SDS011;3091;51.506;7.672;2024-02-23T10:58:11;19.80;;;19.00;;
6121;SDS011;3091;51.506;7.672;2024-02-23T11:00:38;18.77;;;18.07;;
6121;SDS011;3091;51.506;7.672;2024-02-23T11:03:05;18.40;;;17.70;;
6121;SDS011;3091;51.506;7.672;2024-02-23T11:05:32;17.37;;;16.67;;
6121;SDS011;3091;51.506;7.672;2024-02-23T11:07:59;17.90;;;17.10;;
6121;SDS011;3091;51.506;7.672;2024-02-23T11:10:25;20.27;;;19.37;;
6121;SDS011;3091;51.506;7.672;2024-02-23T11:12:59;18.53;;;17.77;;
6121;SDS011;3091;51.506;7.672;2024-02-23T11:15:26;18.00;;;17.30;;
6121;SDS011;3091;51.506;7.672;2024-02-23T11:17:53;18.50;;;17.80;;
6121;SDS011;3091;51.506;7.672;2024-02-23T11:20:19;18.40;;;17.70;;
6121;SDS011;3091;51.506;7.672;2024-02-23T11:22:51;18.00;;;17.30;;
6121;SDS011;3091;51.506;7.672;2024-02-23T11:25:20;20.27;;;18.80;;
6121;SDS011;3091;51.506;7.672;2024-02-23T11:27:52;18.00;;;17.30;;
6121;SDS011;3091;51.506;7.672;2024-02-23T11:30:18;17.67;;;16.97;;
6121;SDS011;3091;51.506;7.672;2024-02-23T11:32:47;19.23;;;18.33;;
6121;SDS011;3091;51.506;7.672;2024-02-23T11:35:14;18.40;;;17.50;;
6121;SDS011;3091;51.506;7.672;2024-02-23T11:40:13;17.10;;;16.40;;
6121;SDS011;3091;51.506;7.672;2024-02-23T11:42:43;19.23;;;17.97;;
6121;SDS011;3091;51.506;7.672;2024-02-23T11:45:09;18.40;;;17.60;;
6121;SDS011;3091;51.506;7.672;2024-02-23T11:47:39;20.77;;;20.07;;
6121;SDS011;3091;51.506;7.672;2024-02-23T11:50:11;22.10;;;21.30;;
6121;SDS011;3091;51.506;7.672;2024-02-23T11:52:38;20.43;;;19.43;;
6121;SDS011;3091;51.506;7.672;2024-02-23T11:55:04;20.60;;;19.80;;
6121;SDS011;3091;51.506;7.672;2024-02-23T11:57:31;20.00;;;19.30;;
6121;SDS011;3091;51.506;7.672;2024-02-23T11:59:57;17.83;;;17.20;;
6121;SDS011;3091;51.506;7.672;2024-02-23T12:02:24;16.60;;;16.00;;
6121;SDS011;3091;51.506;7.672;2024-02-23T12:04:50;16.40;;;15.70;;
6121;SDS011;3091;51.506;7.672;2024-02-23T12:07:16;16.23;;;15.63;;
6121;SDS011;3091;51.506;7.672;2024-02-23T12:09:42;17.37;;;16.63;;
6121;SDS011;3091;51.506;7.672;2024-02-23T12:12:08;17.50;;;16.90;;
6121;SDS011;3091;51.506;7.672;2024-02-23T12:14:35;17.30;;;16.50;;
6121;SDS011;3091;51.506;7.672;2024-02-23T12:17:02;16.20;;;15.60;;
6121;SDS011;3091;51.506;7.672;2024-02-23T12:19:31;16.80;;;16.20;;
6121;SDS011;3091;51.506;7.672;2024-02-23T12:22:00;17.23;;;16.53;;
6121;SDS011;3091;51.506;7.672;2024-02-23T12:24:29;17.60;;;16.90;;
6121;SDS011;3091;51.506;7.672;2024-02-23T12:26:55;16.90;;;16.30;;
6121;SDS011;3091;51.506;7.672;2024-02-23T12:29:22;17.40;;;16.77;;
6121;SDS011;3091;51.506;7.672;2024-02-23T12:31:48;16.27;;;15.70;;
6121;SDS011;3091;51.506;7.672;2024-02-23T12:34:14;16.70;;;16.10;;
6121;SDS011;3091;51.506;7.672;2024-02-23T12:36:40;17.00;;;16.40;;
6121;SDS011;3091;51.506;7.672;2024-02-23T12:39:07;15.63;;;15.13;;
6121;SDS011;3091;51.506;7.672;2024-02-23T12:41:33;16.47;;;15.87;;
6121;SDS011;3091;51.506;7.672;2024-02-23T12:43:59;15.70;;;15.13;;
6121;SDS011;3091;51.506;7.672;2024-02-23T12:46:25;15.60;;;15.10;;
6121;SDS011;3091;51.506;7.672;2024-02-23T12:48:51;16.03;;;15.53;;
6121;SDS011;3091;51.506;7.672;2024-02-23T12:51:17;16.30;;;15.70;;
6121;SDS011;3091;51.506;7.672;2024-02-23T12:53:46;16.40;;;15.80;;
6121;SDS011;3091;51.506;7.672;2024-02-23T12:56:13;16.00;;;15.50;;
6121;SDS011;3091;51.506;7.672;2024-02-23T12:58:41;16.23;;;15.70;;
6121;SDS011;3091;51.506;7.672;2024-02-23T13:01:07;16.30;;;15.70;;
6121;SDS011;3091;51.506;7.672;2024-02-23T13:03:34;16.70;;;15.93;;
6121;SDS011;3091;51.506;7.672;2024-02-23T13:06:00;16.83;;;16.23;;
6121;SDS011;3091;51.506;7.672;2024-02-23T13:08:30;16.93;;;16.30;;
6121;SDS011;3091;51.506;7.672;2024-02-23T13:10:56;16.90;;;16.30;;
6121;SDS011;3091;51.506;7.672;2024-02-23T13:13:23;16.60;;;16.00;;
6121;SDS011;3091;51.506;7.672;2024-02-23T13:15:51;15.80;;;15.30;;
6121;SDS011;3091;51.506;7.672;2024-02-23T13:18:20;16.20;;;15.60;;
6121;SDS011;3091;51.506;7.672;2024-02-23T13:20:47;16.50;;;15.90;;
6121;SDS011;3091;51.506;7.672;2024-02-23T13:23:13;17.23;;;15.80;;
6121;SDS011;3091;51.506;7.672;2024-02-23T13:25:40;16.50;;;15.90;;
6121;SDS011;3091;51.506;7.672;2024-02-23T13:28:07;16.17;;;15.57;;
6121;SDS011;3091;51.506;7.672;2024-02-23T13:30:34;15.60;;;15.10;;
6121;SDS011;3091;51.506;7.672;2024-02-23T13:33:00;16.00;;;15.40;;
6121;SDS011;3091;51.506;7.672;2024-02-23T13:35:26;16.20;;;15.60;;
6121;SDS011;3091;51.506;7.672;2024-02-23T13:37:52;15.70;;;14.90;;
6121;SDS011;3091;51.506;7.672;2024-02-23T13:40:19;16.10;;;15.30;;
6121;SDS011;3091;51.506;7.672;2024-02-23T13:42:47;16.00;;;15.40;;
6121;SDS011;3091;51.506;7.672;2024-02-23T13:45:18;16.37;;;15.77;;
6121;SDS011;3091;51.506;7.672;2024-02-23T13:47:54;19.93;;;19.13;;
6121;SDS011;3091;51.506;7.672;2024-02-23T13:50:21;16.90;;;16.20;;
6121;SDS011;3091;51.506;7.672;2024-02-23T13:52:47;15.80;;;15.20;;
6121;SDS011;3091;51.506;7.672;2024-02-23T13:55:13;16.00;;;15.40;;
6121;SDS011;3091;51.506;7.672;2024-02-23T13:57:39;17.20;;;16.50;;
6121;SDS011;3091;51.506;7.672;2024-02-23T14:00:05;16.20;;;15.60;;
6121;SDS011;3091;51.506;7.672;2024-02-23T14:02:37;16.03;;;15.43;;
6121;SDS011;3091;51.506;7.672;2024-02-23T14:05:05;18.67;;;17.97;;
6121;SDS011;3091;51.506;7.672;2024-02-23T14:07:34;16.73;;;15.73;;
6121;SDS011;3091;51.506;7.672;2024-02-23T14:10:01;15.90;;;15.30;;
6121;SDS011;3091;51.506;7.672;2024-02-23T14:12:27;15.60;;;14.90;;
6121;SDS011;3091;51.506;7.672;2024-02-23T14:14:53;15.23;;;14.73;;
6121;SDS011;3091;51.506;7.672;2024-02-23T14:17:20;16.10;;;15.50;;
6121;SDS011;3091;51.506;7.672;2024-02-23T14:19:46;16.63;;;15.87;;
6121;SDS011;3091;51.506;7.672;2024-02-23T14:22:12;15.80;;;15.20;;
6121;SDS011;3091;51.506;7.672;2024-02-23T14:24:38;15.10;;;14.60;;
6121;SDS011;3091;51.506;7.672;2024-02-23T14:27:05;15.40;;;14.80;;
6121;SDS011;3091;51.506;7.672;2024-02-23T14:29:32;15.27;;;14.77;;
6121;SDS011;3091;51.506;7.672;2024-02-23T14:31:58;15.97;;;15.10;;
6121;SDS011;3091;51.506;7.672;2024-02-23T14:34:25;15.33;;;14.80;;
6121;SDS011;3091;51.506;7.672;2024-02-23T14:36:51;15.70;;;15.10;;
6121;SDS011;3091;51.506;7.672;2024-02-23T14:39:17;15.60;;;15.00;;
6121;SDS011;3091;51.506;7.672;2024-02-23T14:41:44;15.00;;;14.50;;
6121;SDS011;3091;51.506;7.672;2024-02-23T14:44:10;15.40;;;14.80;;
6121;SDS011;3091;51.506;7.672;2024-02-23T14:46:36;15.20;;;14.60;;